sensor_id;sensor_type;location;lat;lon;timestamp;P1;durP1;ratioP1;P2;durP2;ratioP2
37771;SDS011;23610;59.380;24.642;2022-08-16T00:03:43;11.27;;;8.65;;
37771;SDS011;23610;59.380;24.642;2022-08-16T00:08:47;19.90;;;10.02;;
37771;SDS011;23610;59.380;24.642;2022-08-16T00:13:49;12.00;;;8.57;;
37771;SDS011;23610;59.380;24.642;2022-08-16T00:18:55;14.13;;;8.48;;
37771;SDS011;23610;59.380;24.642;2022-08-16T00:23:59;9.30;;;8.40;;
37771;SDS011;23610;59.380;24.642;2022-08-16T00:29:05;12.15;;;8.75;;
37771;SDS011;23610;59.380;24.642;2022-08-16T00:34:08;12.55;;;8.55;;
37771;SDS011;23610;59.380;24.642;2022-08-16T00:39:19;9.13;;;8.05;;
37771;SDS011;23610;59.380;24.642;2022-08-16T00:44:22;16.27;;;8.98;;
37771;SDS011;23610;59.380;24.642;2022-08-16T00:49:33;12.65;;;7.65;;
37771;SDS011;23610;59.380;24.642;2022-08-16T00:54:45;9.55;;;7.82;;
37771;SDS011;23610;59.380;24.642;2022-08-16T00:59:48;12.87;;;8.77;;
37771;SDS011;23610;59.380;24.642;2022-08-16T01:04:59;8.90;;;7.68;;
37771;SDS011;23610;59.380;24.642;2022-08-16T01:10:12;9.85;;;7.50;;
37771;SDS011;23610;59.380;24.642;2022-08-16T01:15:17;10.45;;;7.90;;
37771;SDS011;23610;59.380;24.642;2022-08-16T01:20:24;11.75;;;9.05;;
37771;SDS011;23610;59.380;24.642;2022-08-16T01:25:33;9.88;;;7.85;;
37771;SDS011;23610;59.380;24.642;2022-08-16T01:30:45;10.60;;;8.60;;
37771;SDS011;23610;59.380;24.642;2022-08-16T01:35:54;14.07;;;9.05;;
37771;SDS011;23610;59.380;24.642;2022-08-16T01:41:14;10.32;;;8.30;;
37771;SDS011;23610;59.380;24.642;2022-08-16T01:46:29;13.98;;;8.95;;
37771;SDS011;23610;59.380;24.642;2022-08-16T01:51:58;8.68;;;7.82;;
37771;SDS011;23610;59.380;24.642;2022-08-16T01:57:14;10.77;;;8.20;;
37771;SDS011;23610;59.380;24.642;2022-08-16T02:02:23;12.23;;;9.02;;
37771;SDS011;23610;59.380;24.642;2022-08-16T02:07:29;13.85;;;9.38;;
37771;SDS011;23610;59.380;24.642;2022-08-16T02:12:32;13.73;;;8.32;;
37771;SDS011;23610;59.380;24.642;2022-08-16T02:17:53;10.25;;;8.43;;
37771;SDS011;23610;59.380;24.642;2022-08-16T02:22:58;14.15;;;9.90;;
37771;SDS011;23610;59.380;24.642;2022-08-16T02:28:06;9.73;;;8.40;;
37771;SDS011;23610;59.380;24.642;2022-08-16T02:33:10;8.75;;;7.95;;
37771;SDS011;23610;59.380;24.642;2022-08-16T02:38:16;10.27;;;8.35;;
37771;SDS011;23610;59.380;24.642;2022-08-16T02:43:20;15.30;;;8.77;;
37771;SDS011;23610;59.380;24.642;2022-08-16T02:48:36;14.50;;;9.48;;
37771;SDS011;23610;59.380;24.642;2022-08-16T02:53:50;13.13;;;10.07;;
37771;SDS011;23610;59.380;24.642;2022-08-16T02:58:57;13.13;;;9.18;;
37771;SDS011;23610;59.380;24.642;2022-08-16T03:04:01;9.57;;;8.65;;
37771;SDS011;23610;59.380;24.642;2022-08-16T03:09:26;13.07;;;9.18;;
37771;SDS011;23610;59.380;24.642;2022-08-16T03:14:33;11.35;;;9.02;;
37771;SDS011;23610;59.380;24.642;2022-08-16T03:19:39;12.10;;;9.65;;
37771;SDS011;23610;59.380;24.642;2022-08-16T03:25:01;11.27;;;8.65;;
37771;SDS011;23610;59.380;24.642;2022-08-16T03:35:26;15.48;;;9.40;;
37771;SDS011;23610;59.380;24.642;2022-08-16T03:40:54;15.18;;;9.65;;
37771;SDS011;23610;59.380;24.642;2022-08-16T03:46:00;14.40;;;9.52;;
37771;SDS011;23610;59.380;24.642;2022-08-16T03:51:09;10.48;;;8.98;;
37771;SDS011;23610;59.380;24.642;2022-08-16T03:56:22;15.57;;;9.15;;
37771;SDS011;23610;59.380;24.642;2022-08-16T04:01:31;12.98;;;9.27;;
37771;SDS011;23610;59.380;24.642;2022-08-16T04:06:35;10.00;;;8.93;;
37771;SDS011;23610;59.380;24.642;2022-08-16T04:11:38;14.77;;;10.15;;
37771;SDS011;23610;59.380;24.642;2022-08-16T04:16:41;14.70;;;9.90;;
37771;SDS011;23610;59.380;24.642;2022-08-16T04:22:03;11.80;;;9.68;;
37771;SDS011;23610;59.380;24.642;2022-08-16T04:27:19;9.88;;;8.88;;
37771;SDS011;23610;59.380;24.642;2022-08-16T04:32:24;13.65;;;8.73;;
37771;SDS011;23610;59.380;24.642;2022-08-16T04:37:27;11.82;;;10.10;;
37771;SDS011;23610;59.380;24.642;2022-08-16T04:42:41;14.15;;;9.05;;
37771;SDS011;23610;59.380;24.642;2022-08-16T04:47:48;12.63;;;9.00;;
37771;SDS011;23610;59.380;24.642;2022-08-16T04:52:59;12.10;;;9.32;;
37771;SDS011;23610;59.380;24.642;2022-08-16T04:58:06;11.52;;;8.80;;
37771;SDS011;23610;59.380;24.642;2022-08-16T05:03:31;11.25;;;9.00;;
37771;SDS011;23610;59.380;24.642;2022-08-16T05:08:34;8.90;;;8.00;;
37771;SDS011;23610;59.380;24.642;2022-08-16T05:13:50;15.88;;;8.95;;
37771;SDS011;23610;59.380;24.642;2022-08-16T05:18:56;20.60;;;8.85;;
37771;SDS011;23610;59.380;24.642;2022-08-16T05:24:06;12.65;;;7.82;;
37771;SDS011;23610;59.380;24.642;2022-08-16T05:29:11;9.90;;;8.75;;
37771;SDS011;23610;59.380;24.642;2022-08-16T05:34:29;18.95;;;8.75;;
37771;SDS011;23610;59.380;24.642;2022-08-16T05:39:32;10.30;;;7.75;;
37771;SDS011;23610;59.380;24.642;2022-08-16T05:44:42;20.90;;;8.02;;
37771;SDS011;23610;59.380;24.642;2022-08-16T05:49:52;13.00;;;7.75;;
37771;SDS011;23610;59.380;24.642;2022-08-16T05:54:55;9.05;;;7.05;;
37771;SDS011;23610;59.380;24.642;2022-08-16T06:00:04;9.77;;;8.40;;
37771;SDS011;23610;59.380;24.642;2022-08-16T06:05:18;16.60;;;7.45;;
37771;SDS011;23610;59.380;24.642;2022-08-16T06:10:21;19.70;;;8.35;;
37771;SDS011;23610;59.380;24.642;2022-08-16T06:15:37;12.65;;;7.18;;
37771;SDS011;23610;59.380;24.642;2022-08-16T06:20:43;10.73;;;7.45;;
37771;SDS011;23610;59.380;24.642;2022-08-16T06:25:56;15.23;;;7.32;;
37771;SDS011;23610;59.380;24.642;2022-08-16T06:31:04;14.52;;;7.00;;
37771;SDS011;23610;59.380;24.642;2022-08-16T06:36:14;10.90;;;6.85;;
37771;SDS011;23610;59.380;24.642;2022-08-16T06:41:32;10.82;;;6.75;;
37771;SDS011;23610;59.380;24.642;2022-08-16T06:46:51;13.10;;;6.18;;
37771;SDS011;23610;59.380;24.642;2022-08-16T06:51:54;12.23;;;6.40;;
37771;SDS011;23610;59.380;24.642;2022-08-16T07:08:18;16.58;;;7.45;;
37771;SDS011;23610;59.380;24.642;2022-08-16T07:13:21;14.95;;;5.85;;
37771;SDS011;23610;59.380;24.642;2022-08-16T07:18:44;13.52;;;6.47;;
37771;SDS011;23610;59.380;24.642;2022-08-16T07:24:04;9.65;;;6.07;;
37771;SDS011;23610;59.380;24.642;2022-08-16T07:29:12;9.13;;;5.60;;
37771;SDS011;23610;59.380;24.642;2022-08-16T07:34:16;5.88;;;5.25;;
37771;SDS011;23610;59.380;24.642;2022-08-16T07:39:19;5.50;;;4.82;;
37771;SDS011;23610;59.380;24.642;2022-08-16T07:44:22;6.65;;;4.82;;
37771;SDS011;23610;59.380;24.642;2022-08-16T07:49:27;4.93;;;4.53;;
37771;SDS011;23610;59.380;24.642;2022-08-16T07:54:36;7.32;;;4.75;;
37771;SDS011;23610;59.380;24.642;2022-08-16T07:59:49;8.27;;;5.40;;
37771;SDS011;23610;59.380;24.642;2022-08-16T08:04:53;19.27;;;4.50;;
37771;SDS011;23610;59.380;24.642;2022-08-16T08:09:59;5.78;;;4.45;;
37771;SDS011;23610;59.380;24.642;2022-08-16T08:15:06;7.15;;;3.95;;
37771;SDS011;23610;59.380;24.642;2022-08-16T08:20:15;6.72;;;4.18;;
37771;SDS011;23610;59.380;24.642;2022-08-16T08:25:29;7.80;;;4.32;;
37771;SDS011;23610;59.380;24.642;2022-08-16T08:30:53;8.13;;;4.00;;
37771;SDS011;23610;59.380;24.642;2022-08-16T08:36:04;13.57;;;4.53;;
37771;SDS011;23610;59.380;24.642;2022-08-16T08:41:11;5.82;;;4.05;;
37771;SDS011;23610;59.380;24.642;2022-08-16T08:46:18;5.55;;;4.18;;
37771;SDS011;23610;59.380;24.642;2022-08-16T08:51:24;9.70;;;4.22;;
37771;SDS011;23610;59.380;24.642;2022-08-16T08:56:31;10.20;;;4.47;;
37771;SDS011;23610;59.380;24.642;2022-08-16T09:02:01;6.78;;;4.75;;
37771;SDS011;23610;59.380;24.642;2022-08-16T09:07:12;6.55;;;4.43;;
37771;SDS011;23610;59.380;24.642;2022-08-16T09:12:14;7.53;;;4.00;;
37771;SDS011;23610;59.380;24.642;2022-08-16T09:17:46;4.05;;;3.65;;
37771;SDS011;23610;59.380;24.642;2022-08-16T09:22:56;6.45;;;4.57;;
37771;SDS011;23610;59.380;24.642;2022-08-16T09:28:05;9.02;;;4.80;;
37771;SDS011;23610;59.380;24.642;2022-08-16T09:33:12;12.57;;;4.93;;
37771;SDS011;23610;59.380;24.642;2022-08-16T09:38:21;8.13;;;4.88;;
37771;SDS011;23610;59.380;24.642;2022-08-16T09:43:33;7.88;;;4.72;;
37771;SDS011;23610;59.380;24.642;2022-08-16T09:48:56;10.13;;;4.68;;
37771;SDS011;23610;59.380;24.642;2022-08-16T09:54:04;5.13;;;4.72;;
37771;SDS011;23610;59.380;24.642;2022-08-16T09:59:10;5.35;;;4.43;;
37771;SDS011;23610;59.380;24.642;2022-08-16T10:04:16;5.68;;;5.18;;
37771;SDS011;23610;59.380;24.642;2022-08-16T10:09:34;11.65;;;4.95;;
37771;SDS011;23610;59.380;24.642;2022-08-16T10:14:55;11.93;;;4.53;;
37771;SDS011;23610;59.380;24.642;2022-08-16T10:19:58;7.00;;;4.83;;
37771;SDS011;23610;59.380;24.642;2022-08-16T10:25:01;7.03;;;5.32;;
37771;SDS011;23610;59.380;24.642;2022-08-16T10:30:04;11.05;;;5.50;;
37771;SDS011;23610;59.380;24.642;2022-08-16T10:35:26;6.72;;;4.68;;
37771;SDS011;23610;59.380;24.642;2022-08-16T10:40:33;6.78;;;5.20;;
37771;SDS011;23610;59.380;24.642;2022-08-16T10:45:38;8.70;;;5.00;;
37771;SDS011;23610;59.380;24.642;2022-08-16T10:50:42;5.50;;;5.00;;
37771;SDS011;23610;59.380;24.642;2022-08-16T10:55:45;7.03;;;5.03;;
37771;SDS011;23610;59.380;24.642;2022-08-16T11:00:58;9.82;;;5.50;;
37771;SDS011;23610;59.380;24.642;2022-08-16T11:06:01;5.07;;;4.63;;
37771;SDS011;23610;59.380;24.642;2022-08-16T11:11:12;6.85;;;4.95;;
37771;SDS011;23610;59.380;24.642;2022-08-16T11:16:20;7.53;;;4.68;;
37771;SDS011;23610;59.380;24.642;2022-08-16T11:21:44;5.03;;;4.63;;
37771;SDS011;23610;59.380;24.642;2022-08-16T11:27:07;6.05;;;5.38;;
37771;SDS011;23610;59.380;24.642;2022-08-16T11:32:22;8.55;;;5.05;;
37771;SDS011;23610;59.380;24.642;2022-08-16T11:37:33;5.10;;;4.63;;
37771;SDS011;23610;59.380;24.642;2022-08-16T11:42:57;10.70;;;5.63;;
37771;SDS011;23610;59.380;24.642;2022-08-16T11:48:04;8.60;;;5.20;;
37771;SDS011;23610;59.380;24.642;2022-08-16T11:53:08;6.88;;;4.75;;
37771;SDS011;23610;59.380;24.642;2022-08-16T11:58:15;5.25;;;4.32;;
37771;SDS011;23610;59.380;24.642;2022-08-16T12:03:21;4.93;;;4.53;;
37771;SDS011;23610;59.380;24.642;2022-08-16T12:08:35;6.95;;;4.75;;
37771;SDS011;23610;59.380;24.642;2022-08-16T12:13:38;5.60;;;4.60;;
37771;SDS011;23610;59.380;24.642;2022-08-16T12:18:43;5.22;;;4.72;;
37771;SDS011;23610;59.380;24.642;2022-08-16T12:23:51;11.32;;;5.45;;
37771;SDS011;23610;59.380;24.642;2022-08-16T12:28:53;12.50;;;4.85;;
37771;SDS011;23610;59.380;24.642;2022-08-16T12:33:57;7.07;;;5.60;;
37771;SDS011;23610;59.380;24.642;2022-08-16T12:39:02;10.23;;;5.20;;
37771;SDS011;23610;59.380;24.642;2022-08-16T12:44:07;4.97;;;4.10;;
37771;SDS011;23610;59.380;24.642;2022-08-16T12:49:10;4.77;;;4.30;;
37771;SDS011;23610;59.380;24.642;2022-08-16T12:54:13;5.93;;;5.13;;
37771;SDS011;23610;59.380;24.642;2022-08-16T12:59:16;6.45;;;4.80;;
37771;SDS011;23610;59.380;24.642;2022-08-16T13:04:21;5.15;;;4.60;;
37771;SDS011;23610;59.380;24.642;2022-08-16T13:09:25;4.82;;;4.43;;
37771;SDS011;23610;59.380;24.642;2022-08-16T13:14:32;8.63;;;5.90;;
37771;SDS011;23610;59.380;24.642;2022-08-16T13:19:41;8.00;;;4.78;;
37771;SDS011;23610;59.380;24.642;2022-08-16T13:25:05;10.25;;;5.22;;
37771;SDS011;23610;59.380;24.642;2022-08-16T13:30:21;4.85;;;4.45;;
37771;SDS011;23610;59.380;24.642;2022-08-16T13:53:22;9.05;;;4.30;;
37771;SDS011;23610;59.380;24.642;2022-08-16T13:58:28;5.13;;;4.60;;
37771;SDS011;23610;59.380;24.642;2022-08-16T14:03:54;7.80;;;4.60;;
37771;SDS011;23610;59.380;24.642;2022-08-16T14:08:59;9.95;;;4.82;;
37771;SDS011;23610;59.380;24.642;2022-08-16T14:14:07;7.50;;;4.85;;
37771;SDS011;23610;59.380;24.642;2022-08-16T14:31:21;12.85;;;4.82;;
37771;SDS011;23610;59.380;24.642;2022-08-16T14:36:29;6.68;;;4.93;;
37771;SDS011;23610;59.380;24.642;2022-08-16T14:41:33;12.27;;;4.32;;
37771;SDS011;23610;59.380;24.642;2022-08-16T14:46:40;11.48;;;4.22;;
37771;SDS011;23610;59.380;24.642;2022-08-16T14:51:42;7.80;;;4.57;;
37771;SDS011;23610;59.380;24.642;2022-08-16T14:56:47;7.03;;;4.78;;
37771;SDS011;23610;59.380;24.642;2022-08-16T15:01:56;4.55;;;4.13;;
37771;SDS011;23610;59.380;24.642;2022-08-16T15:07:01;12.75;;;4.50;;
37771;SDS011;23610;59.380;24.642;2022-08-16T15:12:14;5.72;;;4.35;;
37771;SDS011;23610;59.380;24.642;2022-08-16T15:17:31;7.57;;;3.63;;
37771;SDS011;23610;59.380;24.642;2022-08-16T15:22:42;9.48;;;4.80;;
37771;SDS011;23610;59.380;24.642;2022-08-16T15:27:48;11.38;;;4.88;;
37771;SDS011;23610;59.380;24.642;2022-08-16T15:33:01;9.75;;;4.55;;
37771;SDS011;23610;59.380;24.642;2022-08-16T15:38:13;6.07;;;4.60;;
37771;SDS011;23610;59.380;24.642;2022-08-16T15:43:37;8.98;;;4.40;;
37771;SDS011;23610;59.380;24.642;2022-08-16T15:48:44;8.95;;;3.90;;
37771;SDS011;23610;59.380;24.642;2022-08-16T15:53:52;5.05;;;4.53;;
37771;SDS011;23610;59.380;24.642;2022-08-16T15:59:17;10.55;;;4.55;;
37771;SDS011;23610;59.380;24.642;2022-08-16T16:04:24;5.95;;;4.15;;
37771;SDS011;23610;59.380;24.642;2022-08-16T16:09:32;10.32;;;5.68;;
37771;SDS011;23610;59.380;24.642;2022-08-16T16:14:37;10.18;;;3.90;;
37771;SDS011;23610;59.380;24.642;2022-08-16T16:19:42;11.10;;;4.30;;
37771;SDS011;23610;59.380;24.642;2022-08-16T16:24:50;14.80;;;4.10;;
37771;SDS011;23610;59.380;24.642;2022-08-16T16:29:54;10.43;;;4.40;;
37771;SDS011;23610;59.380;24.642;2022-08-16T16:35:03;6.55;;;4.15;;
37771;SDS011;23610;59.380;24.642;2022-08-16T16:40:10;6.28;;;3.83;;
37771;SDS011;23610;59.380;24.642;2022-08-16T17:13:44;7.03;;;4.60;;
37771;SDS011;23610;59.380;24.642;2022-08-16T17:18:46;4.53;;;3.80;;
37771;SDS011;23610;59.380;24.642;2022-08-16T17:24:10;10.30;;;4.10;;
37771;SDS011;23610;59.380;24.642;2022-08-16T17:29:19;8.07;;;4.18;;
37771;SDS011;23610;59.380;24.642;2022-08-16T17:34:31;8.05;;;5.03;;
37771;SDS011;23610;59.380;24.642;2022-08-16T17:39:45;8.48;;;5.68;;
37771;SDS011;23610;59.380;24.642;2022-08-16T17:45:01;5.47;;;4.97;;
37771;SDS011;23610;59.380;24.642;2022-08-16T17:50:04;11.25;;;5.60;;
37771;SDS011;23610;59.380;24.642;2022-08-16T17:55:08;11.70;;;5.10;;
37771;SDS011;23610;59.380;24.642;2022-08-16T18:00:14;11.05;;;4.72;;
37771;SDS011;23610;59.380;24.642;2022-08-16T18:05:20;7.93;;;4.80;;
37771;SDS011;23610;59.380;24.642;2022-08-16T18:10:23;11.68;;;5.07;;
37771;SDS011;23610;59.380;24.642;2022-08-16T18:15:34;7.28;;;5.22;;
37771;SDS011;23610;59.380;24.642;2022-08-16T18:20:37;11.03;;;5.60;;
37771;SDS011;23610;59.380;24.642;2022-08-16T18:25:59;6.32;;;4.82;;
37771;SDS011;23610;59.380;24.642;2022-08-16T18:31:11;8.52;;;4.82;;
37771;SDS011;23610;59.380;24.642;2022-08-16T18:36:13;14.18;;;5.05;;
37771;SDS011;23610;59.380;24.642;2022-08-16T18:41:22;8.15;;;5.10;;
37771;SDS011;23610;59.380;24.642;2022-08-16T18:46:26;14.55;;;5.88;;
37771;SDS011;23610;59.380;24.642;2022-08-16T18:51:29;14.93;;;5.28;;
37771;SDS011;23610;59.380;24.642;2022-08-16T18:56:32;5.17;;;4.67;;
37771;SDS011;23610;59.380;24.642;2022-08-16T19:01:57;10.90;;;5.90;;
37771;SDS011;23610;59.380;24.642;2022-08-16T19:07:05;5.18;;;4.68;;
37771;SDS011;23610;59.380;24.642;2022-08-16T19:12:08;8.38;;;4.63;;
37771;SDS011;23610;59.380;24.642;2022-08-16T19:17:11;5.50;;;4.95;;
37771;SDS011;23610;59.380;24.642;2022-08-16T19:22:22;10.07;;;5.70;;
37771;SDS011;23610;59.380;24.642;2022-08-16T19:27:55;9.57;;;4.68;;
37771;SDS011;23610;59.380;24.642;2022-08-16T19:32:59;9.35;;;4.75;;
37771;SDS011;23610;59.380;24.642;2022-08-16T19:38:03;5.85;;;4.47;;
37771;SDS011;23610;59.380;24.642;2022-08-16T19:43:08;5.25;;;4.38;;
37771;SDS011;23610;59.380;24.642;2022-08-16T19:48:12;5.18;;;4.68;;
37771;SDS011;23610;59.380;24.642;2022-08-16T19:53:15;6.75;;;5.20;;
37771;SDS011;23610;59.380;24.642;2022-08-16T19:58:20;7.70;;;6.10;;
37771;SDS011;23610;59.380;24.642;2022-08-16T20:03:23;8.18;;;5.15;;
37771;SDS011;23610;59.380;24.642;2022-08-16T20:08:28;17.05;;;5.80;;
37771;SDS011;23610;59.380;24.642;2022-08-16T20:13:31;10.02;;;5.05;;
37771;SDS011;23610;59.380;24.642;2022-08-16T20:18:34;11.32;;;5.57;;
37771;SDS011;23610;59.380;24.642;2022-08-16T20:23:37;11.50;;;5.85;;
37771;SDS011;23610;59.380;24.642;2022-08-16T20:28:40;11.10;;;5.00;;
37771;SDS011;23610;59.380;24.642;2022-08-16T20:33:55;8.05;;;5.53;;
37771;SDS011;23610;59.380;24.642;2022-08-16T20:38:57;10.95;;;5.50;;
37771;SDS011;23610;59.380;24.642;2022-08-16T20:44:05;6.47;;;5.00;;
37771;SDS011;23610;59.380;24.642;2022-08-16T20:49:11;5.88;;;5.20;;
37771;SDS011;23610;59.380;24.642;2022-08-16T20:54:14;5.70;;;5.10;;
37771;SDS011;23610;59.380;24.642;2022-08-16T20:59:17;8.68;;;5.65;;
37771;SDS011;23610;59.380;24.642;2022-08-16T21:04:21;6.65;;;5.88;;
37771;SDS011;23610;59.380;24.642;2022-08-16T21:09:28;9.32;;;5.55;;
37771;SDS011;23610;59.380;24.642;2022-08-16T21:14:33;10.02;;;5.22;;
37771;SDS011;23610;59.380;24.642;2022-08-16T21:19:36;8.88;;;5.70;;
37771;SDS011;23610;59.380;24.642;2022-08-16T21:24:41;6.30;;;5.03;;
37771;SDS011;23610;59.380;24.642;2022-08-16T21:29:46;8.18;;;5.57;;
37771;SDS011;23610;59.380;24.642;2022-08-16T21:34:49;21.10;;;6.32;;
37771;SDS011;23610;59.380;24.642;2022-08-16T21:39:52;6.32;;;5.70;;
37771;SDS011;23610;59.380;24.642;2022-08-16T21:44:54;11.65;;;5.30;;
37771;SDS011;23610;59.380;24.642;2022-08-16T21:49:58;8.35;;;5.82;;
37771;SDS011;23610;59.380;24.642;2022-08-16T21:55:00;9.40;;;6.13;;
37771;SDS011;23610;59.380;24.642;2022-08-16T22:00:06;6.53;;;5.85;;
37771;SDS011;23610;59.380;24.642;2022-08-16T22:05:14;8.15;;;5.20;;
37771;SDS011;23610;59.380;24.642;2022-08-16T22:10:17;6.22;;;5.22;;
37771;SDS011;23610;59.380;24.642;2022-08-16T22:15:42;7.30;;;5.88;;
37771;SDS011;23610;59.380;24.642;2022-08-16T22:20:45;6.40;;;5.68;;
37771;SDS011;23610;59.380;24.642;2022-08-16T22:25:50;8.88;;;5.57;;
37771;SDS011;23610;59.380;24.642;2022-08-16T22:30:55;8.35;;;5.10;;
37771;SDS011;23610;59.380;24.642;2022-08-16T22:35:59;9.50;;;6.35;;
37771;SDS011;23610;59.380;24.642;2022-08-16T22:41:05;8.38;;;5.63;;
37771;SDS011;23610;59.380;24.642;2022-08-16T22:46:07;6.72;;;6.07;;
37771;SDS011;23610;59.380;24.642;2022-08-16T22:51:10;8.35;;;5.93;;
37771;SDS011;23610;59.380;24.642;2022-08-16T22:56:14;14.57;;;6.43;;
37771;SDS011;23610;59.380;24.642;2022-08-16T23:01:20;11.63;;;6.00;;
37771;SDS011;23610;59.380;24.642;2022-08-16T23:06:25;7.72;;;5.70;;
37771;SDS011;23610;59.380;24.642;2022-08-16T23:11:28;19.70;;;6.78;;
37771;SDS011;23610;59.380;24.642;2022-08-16T23:16:31;13.45;;;6.13;;
37771;SDS011;23610;59.380;24.642;2022-08-16T23:21:36;13.10;;;5.30;;
37771;SDS011;23610;59.380;24.642;2022-08-16T23:26:42;16.25;;;6.53;;
37771;SDS011;23610;59.380;24.642;2022-08-16T23:31:49;7.00;;;5.75;;
37771;SDS011;23610;59.380;24.642;2022-08-16T23:36:54;7.60;;;5.93;;
37771;SDS011;23610;59.380;24.642;2022-08-16T23:41:57;11.25;;;6.35;;
37771;SDS011;23610;59.380;24.642;2022-08-16T23:47:01;11.87;;;5.90;;
37771;SDS011;23610;59.380;24.642;2022-08-16T23:52:07;8.10;;;6.38;;
37771;SDS011;23610;59.380;24.642;2022-08-16T23:57:10;12.15;;;6.80;;
